sensor_id;sensor_type;location;lat;lon;timestamp;P1;durP1;ratioP1;P2;durP2;ratioP2
14903;SDS011;7543;53.148;8.234;2023-02-22T00:00:43;28.80;;;13.10;;
14903;SDS011;7543;53.148;8.234;2023-02-22T00:03:15;25.60;;;13.30;;
14903;SDS011;7543;53.148;8.234;2023-02-22T00:05:51;26.37;;;12.97;;
14903;SDS011;7543;53.148;8.234;2023-02-22T00:08:23;29.83;;;13.93;;
14903;SDS011;7543;53.148;8.234;2023-02-22T00:10:56;27.33;;;13.67;;
14903;SDS011;7543;53.148;8.234;2023-02-22T00:13:24;26.73;;;13.53;;
14903;SDS011;7543;53.148;8.234;2023-02-22T00:15:55;27.80;;;13.00;;
14903;SDS011;7543;53.148;8.234;2023-02-22T00:18:23;25.13;;;13.03;;
14903;SDS011;7543;53.148;8.234;2023-02-22T00:20:53;27.03;;;13.03;;
14903;SDS011;7543;53.148;8.234;2023-02-22T00:23:27;30.53;;;14.47;;
14903;SDS011;7543;53.148;8.234;2023-02-22T00:25:58;26.40;;;13.20;;
14903;SDS011;7543;53.148;8.234;2023-02-22T00:28:27;26.53;;;13.10;;
14903;SDS011;7543;53.148;8.234;2023-02-22T00:30:56;26.87;;;13.73;;
14903;SDS011;7543;53.148;8.234;2023-02-22T00:33:25;30.77;;;14.43;;
14903;SDS011;7543;53.148;8.234;2023-02-22T00:35:53;27.53;;;13.00;;
14903;SDS011;7543;53.148;8.234;2023-02-22T00:38:22;28.70;;;14.20;;
14903;SDS011;7543;53.148;8.234;2023-02-22T00:40:52;29.80;;;14.10;;
14903;SDS011;7543;53.148;8.234;2023-02-22T00:43:21;30.57;;;14.23;;
14903;SDS011;7543;53.148;8.234;2023-02-22T00:45:50;25.50;;;12.93;;
14903;SDS011;7543;53.148;8.234;2023-02-22T00:48:19;28.97;;;13.30;;
14903;SDS011;7543;53.148;8.234;2023-02-22T00:50:48;27.87;;;13.77;;
14903;SDS011;7543;53.148;8.234;2023-02-22T00:53:19;30.00;;;13.83;;
14903;SDS011;7543;53.148;8.234;2023-02-22T00:55:49;30.77;;;13.83;;
14903;SDS011;7543;53.148;8.234;2023-02-22T00:58:19;28.87;;;14.47;;
14903;SDS011;7543;53.148;8.234;2023-02-22T01:00:47;27.77;;;14.17;;
14903;SDS011;7543;53.148;8.234;2023-02-22T01:03:16;27.97;;;13.73;;
14903;SDS011;7543;53.148;8.234;2023-02-22T01:05:46;28.63;;;14.10;;
14903;SDS011;7543;53.148;8.234;2023-02-22T01:08:15;28.13;;;13.67;;
14903;SDS011;7543;53.148;8.234;2023-02-22T01:10:44;28.43;;;13.67;;
14903;SDS011;7543;53.148;8.234;2023-02-22T01:13:13;27.90;;;13.93;;
14903;SDS011;7543;53.148;8.234;2023-02-22T01:15:42;26.83;;;14.20;;
14903;SDS011;7543;53.148;8.234;2023-02-22T01:18:11;30.03;;;13.90;;
14903;SDS011;7543;53.148;8.234;2023-02-22T01:20:42;26.67;;;13.30;;
14903;SDS011;7543;53.148;8.234;2023-02-22T01:23:15;26.77;;;14.23;;
14903;SDS011;7543;53.148;8.234;2023-02-22T01:25:44;30.13;;;15.00;;
14903;SDS011;7543;53.148;8.234;2023-02-22T01:28:14;26.80;;;14.03;;
14903;SDS011;7543;53.148;8.234;2023-02-22T01:30:44;26.50;;;13.50;;
14903;SDS011;7543;53.148;8.234;2023-02-22T01:33:13;27.23;;;12.73;;
14903;SDS011;7543;53.148;8.234;2023-02-22T01:35:42;26.50;;;13.47;;
14903;SDS011;7543;53.148;8.234;2023-02-22T01:38:12;28.27;;;12.90;;
14903;SDS011;7543;53.148;8.234;2023-02-22T01:40:41;30.43;;;14.57;;
14903;SDS011;7543;53.148;8.234;2023-02-22T01:43:15;26.03;;;13.43;;
14903;SDS011;7543;53.148;8.234;2023-02-22T01:45:54;27.40;;;13.03;;
14903;SDS011;7543;53.148;8.234;2023-02-22T01:48:30;25.07;;;12.90;;
14903;SDS011;7543;53.148;8.234;2023-02-22T01:51:05;26.10;;;13.73;;
14903;SDS011;7543;53.148;8.234;2023-02-22T01:53:38;26.47;;;13.07;;
14903;SDS011;7543;53.148;8.234;2023-02-22T01:56:10;27.80;;;12.83;;
14903;SDS011;7543;53.148;8.234;2023-02-22T01:58:42;25.87;;;13.17;;
14903;SDS011;7543;53.148;8.234;2023-02-22T02:01:15;27.43;;;13.87;;
14903;SDS011;7543;53.148;8.234;2023-02-22T02:03:45;28.07;;;13.33;;
14903;SDS011;7543;53.148;8.234;2023-02-22T02:06:16;30.07;;;13.70;;
14903;SDS011;7543;53.148;8.234;2023-02-22T02:08:49;27.20;;;13.70;;
14903;SDS011;7543;53.148;8.234;2023-02-22T02:11:23;26.83;;;13.70;;
14903;SDS011;7543;53.148;8.234;2023-02-22T02:13:53;29.67;;;14.67;;
14903;SDS011;7543;53.148;8.234;2023-02-22T02:16:24;28.23;;;13.90;;
14903;SDS011;7543;53.148;8.234;2023-02-22T02:18:54;29.17;;;13.60;;
14903;SDS011;7543;53.148;8.234;2023-02-22T02:21:39;30.63;;;13.87;;
14903;SDS011;7543;53.148;8.234;2023-02-22T02:24:22;28.10;;;13.43;;
14903;SDS011;7543;53.148;8.234;2023-02-22T02:27:17;32.60;;;15.23;;
14903;SDS011;7543;53.148;8.234;2023-02-22T02:29:58;31.17;;;13.50;;
14903;SDS011;7543;53.148;8.234;2023-02-22T02:32:44;31.20;;;15.03;;
14903;SDS011;7543;53.148;8.234;2023-02-22T02:35:19;36.03;;;15.57;;
14903;SDS011;7543;53.148;8.234;2023-02-22T02:37:56;37.53;;;14.30;;
14903;SDS011;7543;53.148;8.234;2023-02-22T02:40:30;46.50;;;16.90;;
14903;SDS011;7543;53.148;8.234;2023-02-22T02:43:03;40.90;;;16.30;;
14903;SDS011;7543;53.148;8.234;2023-02-22T02:45:44;40.83;;;16.90;;
14903;SDS011;7543;53.148;8.234;2023-02-22T02:48:16;38.20;;;16.77;;
14903;SDS011;7543;53.148;8.234;2023-02-22T02:50:48;33.53;;;15.20;;
14903;SDS011;7543;53.148;8.234;2023-02-22T02:53:17;35.50;;;15.40;;
14903;SDS011;7543;53.148;8.234;2023-02-22T02:55:49;36.70;;;15.17;;
14903;SDS011;7543;53.148;8.234;2023-02-22T02:58:19;33.33;;;14.03;;
14903;SDS011;7543;53.148;8.234;2023-02-22T03:00:49;29.43;;;13.80;;
14903;SDS011;7543;53.148;8.234;2023-02-22T03:03:36;31.07;;;14.43;;
14903;SDS011;7543;53.148;8.234;2023-02-22T03:06:21;32.17;;;13.83;;
14903;SDS011;7543;53.148;8.234;2023-02-22T03:09:18;27.70;;;12.97;;
14903;SDS011;7543;53.148;8.234;2023-02-22T03:11:55;25.57;;;12.93;;
14903;SDS011;7543;53.148;8.234;2023-02-22T03:14:34;26.53;;;12.60;;
14903;SDS011;7543;53.148;8.234;2023-02-22T03:17:08;26.13;;;13.53;;
14903;SDS011;7543;53.148;8.234;2023-02-22T03:19:43;27.33;;;13.00;;
14903;SDS011;7543;53.148;8.234;2023-02-22T03:22:15;22.83;;;12.40;;
14903;SDS011;7543;53.148;8.234;2023-02-22T03:24:46;24.03;;;12.23;;
14903;SDS011;7543;53.148;8.234;2023-02-22T03:27:21;25.00;;;12.57;;
14903;SDS011;7543;53.148;8.234;2023-02-22T03:29:56;26.07;;;11.93;;
14903;SDS011;7543;53.148;8.234;2023-02-22T03:32:29;25.20;;;12.17;;
14903;SDS011;7543;53.148;8.234;2023-02-22T03:35:04;21.67;;;11.53;;
14903;SDS011;7543;53.148;8.234;2023-02-22T03:37:37;25.93;;;11.77;;
14903;SDS011;7543;53.148;8.234;2023-02-22T03:40:09;26.20;;;12.27;;
14903;SDS011;7543;53.148;8.234;2023-02-22T03:42:42;26.80;;;12.23;;
14903;SDS011;7543;53.148;8.234;2023-02-22T03:45:14;26.67;;;12.63;;
14903;SDS011;7543;53.148;8.234;2023-02-22T03:47:46;21.43;;;11.90;;
14903;SDS011;7543;53.148;8.234;2023-02-22T03:50:19;26.60;;;11.93;;
14903;SDS011;7543;53.148;8.234;2023-02-22T03:52:48;21.97;;;11.33;;
14903;SDS011;7543;53.148;8.234;2023-02-22T03:55:23;21.87;;;11.57;;
14903;SDS011;7543;53.148;8.234;2023-02-22T03:57:55;23.23;;;10.93;;
14903;SDS011;7543;53.148;8.234;2023-02-22T04:00:28;22.70;;;11.53;;
14903;SDS011;7543;53.148;8.234;2023-02-22T04:02:58;23.00;;;11.33;;
14903;SDS011;7543;53.148;8.234;2023-02-22T04:05:28;18.83;;;10.47;;
14903;SDS011;7543;53.148;8.234;2023-02-22T04:07:58;20.93;;;10.73;;
14903;SDS011;7543;53.148;8.234;2023-02-22T04:10:27;21.80;;;11.50;;
14903;SDS011;7543;53.148;8.234;2023-02-22T04:12:55;23.87;;;12.40;;
14903;SDS011;7543;53.148;8.234;2023-02-22T04:15:24;22.83;;;11.90;;
14903;SDS011;7543;53.148;8.234;2023-02-22T04:17:58;21.40;;;10.70;;
14903;SDS011;7543;53.148;8.234;2023-02-22T04:20:28;19.93;;;10.67;;
14903;SDS011;7543;53.148;8.234;2023-02-22T04:23:07;24.40;;;11.27;;
14903;SDS011;7543;53.148;8.234;2023-02-22T04:25:38;24.13;;;11.60;;
14903;SDS011;7543;53.148;8.234;2023-02-22T04:28:16;23.43;;;11.63;;
14903;SDS011;7543;53.148;8.234;2023-02-22T04:30:50;20.50;;;11.33;;
14903;SDS011;7543;53.148;8.234;2023-02-22T04:33:19;20.83;;;10.97;;
14903;SDS011;7543;53.148;8.234;2023-02-22T04:35:49;20.93;;;10.70;;
14903;SDS011;7543;53.148;8.234;2023-02-22T04:38:18;22.00;;;11.30;;
14903;SDS011;7543;53.148;8.234;2023-02-22T04:40:47;21.17;;;10.60;;
14903;SDS011;7543;53.148;8.234;2023-02-22T04:43:16;19.13;;;10.73;;
14903;SDS011;7543;53.148;8.234;2023-02-22T04:45:45;20.20;;;11.03;;
14903;SDS011;7543;53.148;8.234;2023-02-22T04:48:13;20.93;;;10.27;;
14903;SDS011;7543;53.148;8.234;2023-02-22T04:50:41;22.93;;;11.17;;
14903;SDS011;7543;53.148;8.234;2023-02-22T04:53:11;18.07;;;10.20;;
14903;SDS011;7543;53.148;8.234;2023-02-22T04:55:40;20.17;;;10.47;;
14903;SDS011;7543;53.148;8.234;2023-02-22T04:58:09;19.30;;;10.10;;
14903;SDS011;7543;53.148;8.234;2023-02-22T05:00:37;20.03;;;10.53;;
14903;SDS011;7543;53.148;8.234;2023-02-22T05:03:06;21.73;;;11.17;;
14903;SDS011;7543;53.148;8.234;2023-02-22T05:05:35;18.93;;;10.57;;
14903;SDS011;7543;53.148;8.234;2023-02-22T05:08:03;16.07;;;9.10;;
14903;SDS011;7543;53.148;8.234;2023-02-22T05:10:33;17.27;;;9.33;;
14903;SDS011;7543;53.148;8.234;2023-02-22T05:13:02;19.97;;;10.53;;
14903;SDS011;7543;53.148;8.234;2023-02-22T05:15:32;18.03;;;10.07;;
14903;SDS011;7543;53.148;8.234;2023-02-22T05:18:00;18.40;;;10.87;;
14903;SDS011;7543;53.148;8.234;2023-02-22T05:20:29;17.83;;;10.00;;
14903;SDS011;7543;53.148;8.234;2023-02-22T05:23:00;22.10;;;10.67;;
14903;SDS011;7543;53.148;8.234;2023-02-22T05:25:28;17.60;;;10.00;;
14903;SDS011;7543;53.148;8.234;2023-02-22T05:27:59;19.17;;;10.77;;
14903;SDS011;7543;53.148;8.234;2023-02-22T05:30:30;19.07;;;10.10;;
14903;SDS011;7543;53.148;8.234;2023-02-22T05:33:00;19.63;;;10.37;;
14903;SDS011;7543;53.148;8.234;2023-02-22T05:35:28;20.37;;;10.27;;
14903;SDS011;7543;53.148;8.234;2023-02-22T05:37:57;22.87;;;10.87;;
14903;SDS011;7543;53.148;8.234;2023-02-22T05:40:27;17.77;;;9.87;;
14903;SDS011;7543;53.148;8.234;2023-02-22T05:42:58;18.80;;;9.63;;
14903;SDS011;7543;53.148;8.234;2023-02-22T05:45:27;20.47;;;11.03;;
14903;SDS011;7543;53.148;8.234;2023-02-22T05:47:56;20.57;;;10.27;;
14903;SDS011;7543;53.148;8.234;2023-02-22T05:50:24;21.10;;;10.70;;
14903;SDS011;7543;53.148;8.234;2023-02-22T05:52:53;17.23;;;9.63;;
14903;SDS011;7543;53.148;8.234;2023-02-22T05:55:22;19.23;;;10.17;;
14903;SDS011;7543;53.148;8.234;2023-02-22T05:57:51;21.07;;;10.77;;
14903;SDS011;7543;53.148;8.234;2023-02-22T06:00:22;20.17;;;10.93;;
14903;SDS011;7543;53.148;8.234;2023-02-22T06:02:54;18.67;;;10.70;;
14903;SDS011;7543;53.148;8.234;2023-02-22T06:05:23;16.87;;;9.33;;
14903;SDS011;7543;53.148;8.234;2023-02-22T06:07:51;20.63;;;10.60;;
14903;SDS011;7543;53.148;8.234;2023-02-22T06:10:20;18.73;;;10.27;;
14903;SDS011;7543;53.148;8.234;2023-02-22T06:12:49;21.20;;;10.80;;
14903;SDS011;7543;53.148;8.234;2023-02-22T06:15:19;22.50;;;11.70;;
14903;SDS011;7543;53.148;8.234;2023-02-22T06:17:50;22.57;;;11.20;;
14903;SDS011;7543;53.148;8.234;2023-02-22T06:20:19;18.57;;;10.67;;
14903;SDS011;7543;53.148;8.234;2023-02-22T06:22:49;19.10;;;10.30;;
14903;SDS011;7543;53.148;8.234;2023-02-22T06:25:20;22.67;;;11.53;;
14903;SDS011;7543;53.148;8.234;2023-02-22T06:27:51;18.77;;;10.40;;
14903;SDS011;7543;53.148;8.234;2023-02-22T06:30:21;24.50;;;11.23;;
14903;SDS011;7543;53.148;8.234;2023-02-22T06:32:51;20.77;;;10.83;;
14903;SDS011;7543;53.148;8.234;2023-02-22T06:35:20;21.60;;;10.63;;
14903;SDS011;7543;53.148;8.234;2023-02-22T06:37:48;21.37;;;11.13;;
14903;SDS011;7543;53.148;8.234;2023-02-22T06:40:17;18.80;;;11.30;;
14903;SDS011;7543;53.148;8.234;2023-02-22T06:42:46;21.67;;;11.43;;
14903;SDS011;7543;53.148;8.234;2023-02-22T06:45:15;21.40;;;10.93;;
14903;SDS011;7543;53.148;8.234;2023-02-22T06:47:45;25.53;;;11.67;;
14903;SDS011;7543;53.148;8.234;2023-02-22T06:50:19;19.87;;;10.37;;
14903;SDS011;7543;53.148;8.234;2023-02-22T06:52:50;20.20;;;10.97;;
14903;SDS011;7543;53.148;8.234;2023-02-22T06:55:19;20.57;;;11.00;;
14903;SDS011;7543;53.148;8.234;2023-02-22T06:57:49;18.97;;;10.53;;
14903;SDS011;7543;53.148;8.234;2023-02-22T07:00:18;19.27;;;10.23;;
14903;SDS011;7543;53.148;8.234;2023-02-22T07:02:48;19.77;;;10.67;;
14903;SDS011;7543;53.148;8.234;2023-02-22T07:05:17;21.07;;;10.60;;
14903;SDS011;7543;53.148;8.234;2023-02-22T07:07:48;22.00;;;11.10;;
14903;SDS011;7543;53.148;8.234;2023-02-22T07:10:19;23.77;;;10.97;;
14903;SDS011;7543;53.148;8.234;2023-02-22T07:12:49;22.57;;;11.97;;
14903;SDS011;7543;53.148;8.234;2023-02-22T07:15:18;23.20;;;12.27;;
14903;SDS011;7543;53.148;8.234;2023-02-22T07:17:49;21.03;;;11.23;;
14903;SDS011;7543;53.148;8.234;2023-02-22T07:20:18;22.17;;;11.13;;
14903;SDS011;7543;53.148;8.234;2023-02-22T07:22:48;27.70;;;12.67;;
14903;SDS011;7543;53.148;8.234;2023-02-22T07:25:16;22.43;;;12.07;;
14903;SDS011;7543;53.148;8.234;2023-02-22T07:27:45;21.87;;;11.80;;
14903;SDS011;7543;53.148;8.234;2023-02-22T07:30:15;29.03;;;13.67;;
14903;SDS011;7543;53.148;8.234;2023-02-22T07:32:45;25.03;;;12.87;;
14903;SDS011;7543;53.148;8.234;2023-02-22T07:35:15;27.03;;;12.80;;
14903;SDS011;7543;53.148;8.234;2023-02-22T07:37:44;30.97;;;13.10;;
14903;SDS011;7543;53.148;8.234;2023-02-22T07:40:14;26.83;;;11.93;;
14903;SDS011;7543;53.148;8.234;2023-02-22T07:42:54;24.23;;;11.63;;
14903;SDS011;7543;53.148;8.234;2023-02-22T07:45:23;28.03;;;12.80;;
14903;SDS011;7543;53.148;8.234;2023-02-22T07:47:53;23.03;;;12.07;;
14903;SDS011;7543;53.148;8.234;2023-02-22T07:50:23;25.80;;;11.90;;
14903;SDS011;7543;53.148;8.234;2023-02-22T07:52:53;25.27;;;12.03;;
14903;SDS011;7543;53.148;8.234;2023-02-22T07:55:23;26.93;;;12.80;;
14903;SDS011;7543;53.148;8.234;2023-02-22T07:57:53;24.47;;;10.97;;
14903;SDS011;7543;53.148;8.234;2023-02-22T08:00:24;24.90;;;11.57;;
14903;SDS011;7543;53.148;8.234;2023-02-22T08:02:53;24.97;;;12.00;;
14903;SDS011;7543;53.148;8.234;2023-02-22T08:05:24;23.03;;;10.77;;
14903;SDS011;7543;53.148;8.234;2023-02-22T08:07:53;27.17;;;11.33;;
14903;SDS011;7543;53.148;8.234;2023-02-22T08:10:23;21.63;;;10.60;;
14903;SDS011;7543;53.148;8.234;2023-02-22T08:12:52;26.33;;;11.53;;
14903;SDS011;7543;53.148;8.234;2023-02-22T08:15:22;24.00;;;11.87;;
14903;SDS011;7543;53.148;8.234;2023-02-22T08:17:51;23.47;;;11.13;;
14903;SDS011;7543;53.148;8.234;2023-02-22T08:20:20;24.17;;;10.67;;
14903;SDS011;7543;53.148;8.234;2023-02-22T08:22:50;22.77;;;11.37;;
14903;SDS011;7543;53.148;8.234;2023-02-22T08:25:20;27.83;;;11.83;;
14903;SDS011;7543;53.148;8.234;2023-02-22T08:27:51;25.43;;;11.53;;
14903;SDS011;7543;53.148;8.234;2023-02-22T08:30:24;20.53;;;10.70;;
14903;SDS011;7543;53.148;8.234;2023-02-22T08:32:53;25.50;;;11.43;;
14903;SDS011;7543;53.148;8.234;2023-02-22T08:35:21;22.17;;;10.33;;
14903;SDS011;7543;53.148;8.234;2023-02-22T08:37:51;21.93;;;10.60;;
14903;SDS011;7543;53.148;8.234;2023-02-22T08:40:22;24.13;;;12.07;;
14903;SDS011;7543;53.148;8.234;2023-02-22T08:42:54;26.20;;;12.10;;
14903;SDS011;7543;53.148;8.234;2023-02-22T08:45:22;25.83;;;11.47;;
14903;SDS011;7543;53.148;8.234;2023-02-22T08:47:51;23.63;;;11.17;;
14903;SDS011;7543;53.148;8.234;2023-02-22T08:50:20;23.73;;;11.00;;
14903;SDS011;7543;53.148;8.234;2023-02-22T08:52:51;25.67;;;11.57;;
14903;SDS011;7543;53.148;8.234;2023-02-22T08:55:21;27.77;;;9.83;;
14903;SDS011;7543;53.148;8.234;2023-02-22T08:57:50;23.67;;;10.83;;
14903;SDS011;7543;53.148;8.234;2023-02-22T09:00:20;24.40;;;10.50;;
14903;SDS011;7543;53.148;8.234;2023-02-22T09:02:50;21.63;;;10.57;;
14903;SDS011;7543;53.148;8.234;2023-02-22T09:05:19;19.53;;;10.17;;
14903;SDS011;7543;53.148;8.234;2023-02-22T09:07:47;26.70;;;10.57;;
14903;SDS011;7543;53.148;8.234;2023-02-22T09:10:18;23.60;;;11.80;;
14903;SDS011;7543;53.148;8.234;2023-02-22T09:12:50;22.27;;;9.77;;
14903;SDS011;7543;53.148;8.234;2023-02-22T09:15:18;25.70;;;11.20;;
14903;SDS011;7543;53.148;8.234;2023-02-22T09:17:47;22.13;;;11.40;;
14903;SDS011;7543;53.148;8.234;2023-02-22T09:20:16;24.70;;;11.23;;
14903;SDS011;7543;53.148;8.234;2023-02-22T09:22:45;21.07;;;11.07;;
14903;SDS011;7543;53.148;8.234;2023-02-22T09:25:16;20.73;;;10.40;;
14903;SDS011;7543;53.148;8.234;2023-02-22T09:27:46;26.07;;;12.27;;
14903;SDS011;7543;53.148;8.234;2023-02-22T09:30:17;24.00;;;11.80;;
14903;SDS011;7543;53.148;8.234;2023-02-22T09:32:52;25.93;;;12.30;;
14903;SDS011;7543;53.148;8.234;2023-02-22T09:35:21;24.07;;;11.67;;
14903;SDS011;7543;53.148;8.234;2023-02-22T09:37:53;22.93;;;11.93;;
14903;SDS011;7543;53.148;8.234;2023-02-22T09:40:23;26.87;;;12.43;;
14903;SDS011;7543;53.148;8.234;2023-02-22T09:43:01;20.33;;;11.03;;
14903;SDS011;7543;53.148;8.234;2023-02-22T09:45:38;27.17;;;12.63;;
14903;SDS011;7543;53.148;8.234;2023-02-22T09:48:14;26.80;;;12.13;;
14903;SDS011;7543;53.148;8.234;2023-02-22T09:50:43;27.53;;;11.80;;
14903;SDS011;7543;53.148;8.234;2023-02-22T09:53:16;23.30;;;12.43;;
14903;SDS011;7543;53.148;8.234;2023-02-22T09:55:57;23.53;;;11.63;;
14903;SDS011;7543;53.148;8.234;2023-02-22T09:58:27;25.67;;;11.60;;
14903;SDS011;7543;53.148;8.234;2023-02-22T10:01:03;26.17;;;11.03;;
14903;SDS011;7543;53.148;8.234;2023-02-22T10:03:46;23.17;;;11.90;;
14903;SDS011;7543;53.148;8.234;2023-02-22T10:06:18;22.03;;;11.30;;
14903;SDS011;7543;53.148;8.234;2023-02-22T10:08:48;26.47;;;12.37;;
14903;SDS011;7543;53.148;8.234;2023-02-22T10:11:27;25.60;;;12.73;;
14903;SDS011;7543;53.148;8.234;2023-02-22T10:14:06;28.00;;;13.80;;
14903;SDS011;7543;53.148;8.234;2023-02-22T10:16:45;29.83;;;14.80;;
14903;SDS011;7543;53.148;8.234;2023-02-22T10:19:19;33.73;;;17.80;;
14903;SDS011;7543;53.148;8.234;2023-02-22T10:21:54;34.33;;;17.47;;
14903;SDS011;7543;53.148;8.234;2023-02-22T10:24:45;28.63;;;14.80;;
14903;SDS011;7543;53.148;8.234;2023-02-22T10:27:24;26.80;;;14.43;;
14903;SDS011;7543;53.148;8.234;2023-02-22T10:29:57;28.87;;;14.70;;
14903;SDS011;7543;53.148;8.234;2023-02-22T10:32:30;28.90;;;14.03;;
14903;SDS011;7543;53.148;8.234;2023-02-22T10:34:59;27.13;;;13.97;;
14903;SDS011;7543;53.148;8.234;2023-02-22T10:37:31;29.80;;;14.13;;
14903;SDS011;7543;53.148;8.234;2023-02-22T10:40:10;28.97;;;13.43;;
14903;SDS011;7543;53.148;8.234;2023-02-22T10:42:44;25.73;;;13.57;;
14903;SDS011;7543;53.148;8.234;2023-02-22T10:45:17;24.37;;;13.17;;
14903;SDS011;7543;53.148;8.234;2023-02-22T10:47:48;24.00;;;13.23;;
14903;SDS011;7543;53.148;8.234;2023-02-22T10:50:18;29.40;;;13.30;;
14903;SDS011;7543;53.148;8.234;2023-02-22T10:52:47;23.20;;;12.63;;
14903;SDS011;7543;53.148;8.234;2023-02-22T10:55:16;22.97;;;12.57;;
14903;SDS011;7543;53.148;8.234;2023-02-22T10:57:46;22.93;;;12.23;;
14903;SDS011;7543;53.148;8.234;2023-02-22T11:00:17;34.50;;;13.77;;
14903;SDS011;7543;53.148;8.234;2023-02-22T11:02:52;25.97;;;13.13;;
14903;SDS011;7543;53.148;8.234;2023-02-22T11:05:25;24.33;;;12.17;;
14903;SDS011;7543;53.148;8.234;2023-02-22T11:08:12;23.60;;;12.60;;
14903;SDS011;7543;53.148;8.234;2023-02-22T11:10:51;26.23;;;13.23;;
14903;SDS011;7543;53.148;8.234;2023-02-22T11:13:25;24.07;;;12.63;;
14903;SDS011;7543;53.148;8.234;2023-02-22T11:15:56;24.93;;;12.73;;
14903;SDS011;7543;53.148;8.234;2023-02-22T11:18:26;26.73;;;12.70;;
14903;SDS011;7543;53.148;8.234;2023-02-22T11:21:00;24.97;;;12.43;;
14903;SDS011;7543;53.148;8.234;2023-02-22T11:23:31;22.00;;;11.90;;
14903;SDS011;7543;53.148;8.234;2023-02-22T11:26:01;23.73;;;11.77;;
14903;SDS011;7543;53.148;8.234;2023-02-22T11:28:33;25.80;;;12.67;;
14903;SDS011;7543;53.148;8.234;2023-02-22T11:31:11;22.87;;;12.10;;
14903;SDS011;7543;53.148;8.234;2023-02-22T11:33:47;22.83;;;11.70;;
14903;SDS011;7543;53.148;8.234;2023-02-22T11:36:28;22.17;;;11.20;;
14903;SDS011;7543;53.148;8.234;2023-02-22T11:38:59;25.10;;;12.60;;
14903;SDS011;7543;53.148;8.234;2023-02-22T11:41:33;25.80;;;12.53;;
14903;SDS011;7543;53.148;8.234;2023-02-22T11:44:12;24.63;;;11.73;;
14903;SDS011;7543;53.148;8.234;2023-02-22T11:46:48;24.67;;;11.93;;
14903;SDS011;7543;53.148;8.234;2023-02-22T11:49:17;23.60;;;12.73;;
14903;SDS011;7543;53.148;8.234;2023-02-22T11:54:38;20.53;;;10.73;;
14903;SDS011;7543;53.148;8.234;2023-02-22T11:57:26;23.50;;;10.70;;
14903;SDS011;7543;53.148;8.234;2023-02-22T12:00:08;24.20;;;11.93;;
14903;SDS011;7543;53.148;8.234;2023-02-22T12:02:46;24.33;;;10.97;;
14903;SDS011;7543;53.148;8.234;2023-02-22T12:05:26;20.03;;;10.53;;
14903;SDS011;7543;53.148;8.234;2023-02-22T12:08:09;21.87;;;10.63;;
14903;SDS011;7543;53.148;8.234;2023-02-22T12:10:46;21.97;;;10.50;;
14903;SDS011;7543;53.148;8.234;2023-02-22T12:13:24;21.40;;;10.10;;
14903;SDS011;7543;53.148;8.234;2023-02-22T12:16:06;22.73;;;10.63;;
14903;SDS011;7543;53.148;8.234;2023-02-22T12:18:40;24.23;;;10.13;;
14903;SDS011;7543;53.148;8.234;2023-02-22T12:21:14;21.87;;;10.90;;
14903;SDS011;7543;53.148;8.234;2023-02-22T12:23:44;21.17;;;10.87;;
14903;SDS011;7543;53.148;8.234;2023-02-22T12:26:17;24.83;;;11.10;;
14903;SDS011;7543;53.148;8.234;2023-02-22T12:28:50;23.10;;;10.63;;
14903;SDS011;7543;53.148;8.234;2023-02-22T12:31:27;20.67;;;10.77;;
14903;SDS011;7543;53.148;8.234;2023-02-22T12:34:01;20.80;;;10.70;;
14903;SDS011;7543;53.148;8.234;2023-02-22T12:36:36;25.10;;;11.07;;
14903;SDS011;7543;53.148;8.234;2023-02-22T12:39:19;21.20;;;10.50;;
14903;SDS011;7543;53.148;8.234;2023-02-22T12:41:54;18.20;;;9.97;;
14903;SDS011;7543;53.148;8.234;2023-02-22T12:44:24;20.80;;;10.33;;
14903;SDS011;7543;53.148;8.234;2023-02-22T12:46:57;18.60;;;9.63;;
14903;SDS011;7543;53.148;8.234;2023-02-22T12:49:29;24.47;;;10.23;;
14903;SDS011;7543;53.148;8.234;2023-02-22T12:52:02;19.60;;;10.00;;
14903;SDS011;7543;53.148;8.234;2023-02-22T12:54:50;17.67;;;9.07;;
14903;SDS011;7543;53.148;8.234;2023-02-22T12:57:23;21.87;;;9.73;;
14903;SDS011;7543;53.148;8.234;2023-02-22T12:59:55;20.33;;;9.63;;
14903;SDS011;7543;53.148;8.234;2023-02-22T13:02:29;20.57;;;9.90;;
14903;SDS011;7543;53.148;8.234;2023-02-22T13:04:59;19.80;;;9.20;;
14903;SDS011;7543;53.148;8.234;2023-02-22T13:07:32;19.87;;;9.77;;
14903;SDS011;7543;53.148;8.234;2023-02-22T13:10:10;18.37;;;9.80;;
14903;SDS011;7543;53.148;8.234;2023-02-22T13:12:50;24.63;;;10.90;;
14903;SDS011;7543;53.148;8.234;2023-02-22T13:15:22;19.60;;;9.70;;
14903;SDS011;7543;53.148;8.234;2023-02-22T13:17:58;18.90;;;9.53;;
14903;SDS011;7543;53.148;8.234;2023-02-22T13:20:31;17.93;;;9.60;;
14903;SDS011;7543;53.148;8.234;2023-02-22T13:23:04;19.00;;;9.97;;
14903;SDS011;7543;53.148;8.234;2023-02-22T13:25:36;18.60;;;9.07;;
14903;SDS011;7543;53.148;8.234;2023-02-22T13:28:21;17.87;;;9.67;;
14903;SDS011;7543;53.148;8.234;2023-02-22T13:31:08;20.07;;;10.53;;
14903;SDS011;7543;53.148;8.234;2023-02-22T13:33:52;17.43;;;9.40;;
14903;SDS011;7543;53.148;8.234;2023-02-22T13:36:35;19.77;;;9.73;;
14903;SDS011;7543;53.148;8.234;2023-02-22T13:39:12;15.80;;;9.03;;
14903;SDS011;7543;53.148;8.234;2023-02-22T13:42:06;18.67;;;9.53;;
14903;SDS011;7543;53.148;8.234;2023-02-22T13:44:55;19.93;;;9.80;;
14903;SDS011;7543;53.148;8.234;2023-02-22T13:47:51;18.43;;;9.20;;
14903;SDS011;7543;53.148;8.234;2023-02-22T13:50:46;19.03;;;9.83;;
14903;SDS011;7543;53.148;8.234;2023-02-22T13:53:38;19.50;;;9.73;;
14903;SDS011;7543;53.148;8.234;2023-02-22T13:56:10;21.40;;;10.23;;
14903;SDS011;7543;53.148;8.234;2023-02-22T13:58:46;19.17;;;10.03;;
14903;SDS011;7543;53.148;8.234;2023-02-22T14:01:35;18.23;;;9.47;;
14903;SDS011;7543;53.148;8.234;2023-02-22T14:04:19;17.80;;;9.73;;
14903;SDS011;7543;53.148;8.234;2023-02-22T14:10:37;16.27;;;9.20;;
14903;SDS011;7543;53.148;8.234;2023-02-22T14:13:13;17.67;;;9.83;;
14903;SDS011;7543;53.148;8.234;2023-02-22T14:18:48;19.43;;;9.67;;
14903;SDS011;7543;53.148;8.234;2023-02-22T14:21:18;17.53;;;9.27;;
14903;SDS011;7543;53.148;8.234;2023-02-22T14:23:47;16.07;;;9.20;;
14903;SDS011;7543;53.148;8.234;2023-02-22T14:26:18;18.73;;;9.80;;
14903;SDS011;7543;53.148;8.234;2023-02-22T14:28:51;17.47;;;9.53;;
14903;SDS011;7543;53.148;8.234;2023-02-22T14:31:21;20.33;;;9.97;;
14903;SDS011;7543;53.148;8.234;2023-02-22T14:33:54;19.17;;;10.00;;
14903;SDS011;7543;53.148;8.234;2023-02-22T14:36:25;22.30;;;10.27;;
14903;SDS011;7543;53.148;8.234;2023-02-22T14:38:59;18.40;;;10.00;;
14903;SDS011;7543;53.148;8.234;2023-02-22T14:41:35;19.33;;;9.23;;
14903;SDS011;7543;53.148;8.234;2023-02-22T14:44:04;18.97;;;9.67;;
14903;SDS011;7543;53.148;8.234;2023-02-22T14:46:39;19.30;;;9.87;;
14903;SDS011;7543;53.148;8.234;2023-02-22T14:49:08;19.00;;;8.73;;
14903;SDS011;7543;53.148;8.234;2023-02-22T14:51:48;17.77;;;9.87;;
14903;SDS011;7543;53.148;8.234;2023-02-22T14:54:23;20.07;;;10.03;;
14903;SDS011;7543;53.148;8.234;2023-02-22T14:56:57;22.10;;;9.50;;
14903;SDS011;7543;53.148;8.234;2023-02-22T14:59:46;20.50;;;9.90;;
14903;SDS011;7543;53.148;8.234;2023-02-22T15:02:19;19.47;;;10.27;;
14903;SDS011;7543;53.148;8.234;2023-02-22T15:04:52;18.47;;;9.73;;
14903;SDS011;7543;53.148;8.234;2023-02-22T15:07:22;17.00;;;9.47;;
14903;SDS011;7543;53.148;8.234;2023-02-22T15:12:50;17.07;;;9.87;;
14903;SDS011;7543;53.148;8.234;2023-02-22T15:15:21;17.97;;;9.90;;
14903;SDS011;7543;53.148;8.234;2023-02-22T15:17:53;19.67;;;10.43;;
14903;SDS011;7543;53.148;8.234;2023-02-22T15:20:22;18.87;;;10.27;;